Time;durP1;ratioP1;P1;durP2;ratioP2;P2;SDS_P1;SDS_P2;PMS_P1;PMS_P2;Temp;Humidity;BMP_temperature;BMP_pressure;BME280_temperature;BME280_humidity;BME280_pressure;Samples;Min_cycle;Max_cycle;Signal;HPM_P1;HPM_P2
2022/02/26 00:01:36;;;;;;;13.40;7.00;;;;;;;2.93;100.00;99826.79;1707014;84;20121;-59
2022/02/26 00:04:02;;;;;;;12.53;6.90;;;;;;;2.95;100.00;99821.48;1687556;85;21057;-58
2022/02/26 00:06:29;;;;;;;;;;;;;;;3.03;100.00;99824.42;1725392;83;21057;-59
2022/02/26 00:08:55;;;;;;;12.88;7.20;;;;;;;3.03;100.00;99824.42;1722049;83;20134;-59
2022/02/26 00:11:22;;;;;;;;;;;;;;;2.97;100.00;99825.31;1725173;83;21064;-59
2022/02/26 00:13:49;;;;;;;9.95;6.10;;;;;;;3.01;100.00;99831.34;1709761;83;20145;-58
2022/02/26 00:16:16;;;;;;;14.70;6.80;;;;;;;3.00;100.00;99835.11;1700788;83;21081;-59
2022/02/26 00:18:42;;;;;;;11.57;7.17;;;;;;;2.99;100.00;99841.52;1693982;85;21500;-58
2022/02/26 00:21:09;;;;;;;9.53;6.55;;;;;;;2.92;100.00;99836.72;1709356;82;21061;-58
2022/02/26 00:23:35;;;;;;;10.05;6.33;;;;;;;2.91;100.00;99842.30;1707356;84;21121;-58
2022/02/26 00:26:02;;;;;;;;;;;;;;;2.92;100.00;99839.41;1709860;84;21057;-58
2022/02/26 00:28:30;;;;;;;;;;;;;;;2.94;100.00;99842.69;1705466;84;20162;-58
2022/02/26 00:30:56;;;;;;;10.93;6.17;;;;;;;2.89;100.00;99845.22;1698986;84;20110;-59
2022/02/26 00:33:24;;;;;;;10.05;6.08;;;;;;;2.80;100.00;99847.86;1719534;83;21068;-58
2022/02/26 00:35:51;;;;;;;10.70;6.67;;;;;;;2.80;100.00;99849.76;1749631;82;21098;-58
2022/02/26 00:38:17;;;;;;;8.90;6.05;;;;;;;2.82;100.00;99850.34;1766900;81;21048;-58
2022/02/26 00:40:45;;;;;;;11.18;6.05;;;;;;;2.83;100.00;99853.34;1767202;81;21036;-58
2022/02/26 00:43:12;;;;;;;11.68;6.55;;;;;;;2.79;100.00;99851.62;1765451;81;21110;-58
2022/02/26 00:45:39;;;;;;;10.55;6.20;;;;;;;2.79;100.00;99851.62;1767629;81;21051;-59
2022/02/26 00:48:05;;;;;;;10.45;6.37;;;;;;;2.77;100.00;99856.37;1767423;81;21055;-58
2022/02/26 00:50:33;;;;;;;10.72;6.42;;;;;;;2.70;100.00;99862.31;1766394;79;21502;-57
2022/02/26 00:53:00;;;;;;;10.90;6.75;;;;;;;2.69;100.00;99866.59;1767034;81;21107;-58
2022/02/26 00:55:26;;;;;;;;;;;;;;;2.71;100.00;99870.70;1769724;79;21033;-58
2022/02/26 00:57:53;;;;;;;10.78;6.87;;;;;;;2.72;100.00;99873.70;1753245;81;20099;-59
2022/02/26 01:00:19;;;;;;;11.15;6.08;;;;;;;2.64;100.00;99882.02;1763169;81;20996;-58
2022/02/26 01:02:47;;;;;;;9.78;5.92;;;;;;;2.63;100.00;99888.94;1765268;81;21221;-58
2022/02/26 01:05:13;;;;;;;9.60;5.62;;;;;;;2.67;100.00;99885.61;1767521;81;21051;-58
2022/02/26 01:07:41;;;;;;;9.78;5.47;;;;;;;2.69;100.00;99883.54;1739425;81;21593;-58
2022/02/26 01:10:08;;;;;;;9.78;5.72;;;;;;;2.71;100.00;99879.27;1736893;82;21040;-58
2022/02/26 01:12:35;;;;;;;8.98;5.65;;;;;;;2.70;100.00;99881.65;1743621;81;21023;-59
2022/02/26 01:15:03;;;;;;;9.50;5.85;;;;;;;2.65;100.00;99890.91;1737197;82;21067;-58
2022/02/26 01:17:29;;;;;;;7.97;4.95;;;;;;;2.64;100.00;99890.08;1737074;82;21098;-58
2022/02/26 01:19:56;;;;;;;8.35;5.42;;;;;;;2.68;100.00;99896.67;1737522;81;21091;-58
2022/02/26 01:22:22;;;;;;;11.60;5.15;;;;;;;2.69;100.00;99897.50;1741643;81;21070;-57
2022/02/26 01:24:49;;;;;;;7.03;4.90;;;;;;;2.71;100.00;99899.44;1767342;81;21036;-59
2022/02/26 01:27:16;;;;;;;8.18;5.42;;;;;;;2.67;100.00;99904.42;1767535;79;21892;-58
2022/02/26 01:29:42;;;;;;;7.17;4.42;;;;;;;2.63;100.00;99907.23;1757921;79;21070;-58
2022/02/26 01:32:09;;;;;;;8.43;5.00;;;;;;;2.64;100.00;99904.86;1749417;81;21106;-58
2022/02/26 01:34:36;;;;;;;8.33;4.60;;;;;;;2.66;100.00;99911.38;1797917;79;21055;-59
2022/02/26 01:37:03;;;;;;;7.20;4.67;;;;;;;2.64;100.00;99908.89;1762444;79;21031;-59
2022/02/26 01:39:30;;;;;;;8.18;4.65;;;;;;;2.64;100.00;99912.09;1752206;81;21022;-58
2022/02/26 01:41:57;;;;;;;9.45;4.90;;;;;;;2.58;100.00;99911.63;1748796;81;20968;-58
2022/02/26 01:44:24;;;;;;;6.80;4.37;;;;;;;2.51;100.00;99919.18;1742096;81;21038;-58
2022/02/26 01:46:51;;;;;;;8.30;4.70;;;;;;;2.49;100.00;99921.27;1740819;81;21010;-58
2022/02/26 01:49:18;;;;;;;8.23;4.40;;;;;;;2.43;100.00;99921.31;1743129;81;21010;-58
2022/02/26 01:51:45;;;;;;;7.70;4.97;;;;;;;2.41;100.00;99928.23;1742181;81;21311;-59
2022/02/26 01:54:12;;;;;;;6.20;4.42;;;;;;;2.37;100.00;99915.45;1742088;81;21027;-59
2022/02/26 01:56:40;;;;;;;8.85;5.33;;;;;;;2.34;100.00;99921.23;1742946;81;20966;-59
2022/02/26 01:59:07;;;;;;;8.28;4.92;;;;;;;2.27;100.00;99928.50;1741427;81;21082;-58
2022/02/26 02:01:34;;;;;;;8.48;4.83;;;;;;;2.22;100.00;99935.05;1744873;81;21003;-59
2022/02/26 02:04:01;;;;;;;9.33;4.60;;;;;;;2.19;100.00;99941.67;1752948;81;21078;-59
2022/02/26 02:06:29;;;;;;;6.80;4.37;;;;;;;2.15;100.00;99938.28;1727282;83;21551;-60
2022/02/26 02:08:57;;;;;;;7.17;4.65;;;;;;;2.12;100.00;99940.87;1727023;83;21046;-60
2022/02/26 02:11:23;;;;;;;7.45;4.90;;;;;;;2.10;100.00;99945.62;1727349;83;21034;-60
2022/02/26 02:13:50;;;;;;;9.00;4.70;;;;;;;2.09;100.00;99948.53;1727338;81;21110;-60
2022/02/26 02:16:20;;;;;;;8.63;4.80;;;;;;;2.05;100.00;99952.67;1729472;81;21003;-60
2022/02/26 02:18:46;;;;;;;7.35;4.55;;;;;;;2.00;100.00;99951.95;1727175;83;21027;-60
2022/02/26 02:21:13;;;;;;;;;;;;;;;1.97;100.00;99953.72;1730415;81;21023;-60
2022/02/26 02:23:44;;;;;;;9.80;4.75;;;;;;;1.93;100.00;99953.83;1727089;83;20118;-60
2022/02/26 02:26:11;;;;;;;7.92;4.60;;;;;;;1.79;100.00;99960.27;1733264;81;21342;-60
2022/02/26 02:28:38;;;;;;;8.03;4.62;;;;;;;1.78;100.00;99954.58;1723102;82;21099;-60
2022/02/26 02:31:06;;;;;;;8.55;4.58;;;;;;;1.80;100.00;99953.88;1725071;82;21060;-59
2022/02/26 02:33:41;;;;;;;6.08;4.00;;;;;;;1.79;100.00;99960.27;1725506;82;21122;-60
2022/02/26 02:36:08;;;;;;;7.55;4.33;;;;;;;1.78;100.00;99959.95;1727794;82;20917;-59
2022/02/26 02:38:34;;;;;;;8.58;4.40;;;;;;;1.69;100.00;99959.36;1729179;82;21031;-59
2022/02/26 02:41:01;;;;;;;6.35;4.67;;;;;;;1.66;100.00;99956.27;1728527;82;21630;-59
2022/02/26 02:43:28;;;;;;;6.53;4.10;;;;;;;1.67;100.00;99964.61;1718857;82;21568;-59
2022/02/26 02:45:54;;;;;;;7.03;4.40;;;;;;;1.66;100.00;99961.13;1736536;82;21577;-59
2022/02/26 02:48:21;;;;;;;7.78;4.47;;;;;;;1.66;100.00;99971.03;1715269;82;21676;-59
2022/02/26 02:50:48;;;;;;;8.75;5.45;;;;;;;1.61;100.00;99972.98;1715375;82;21047;-59
2022/02/26 02:53:16;;;;;;;;;;;;;;;1.55;100.00;99968.97;1717440;83;21042;-59
2022/02/26 02:55:43;;;;;;;;;;;;;;;1.54;100.00;99981.56;1737599;82;20441;-58
2022/02/26 02:58:09;;;;;;;6.95;4.20;;;;;;;1.46;100.00;99979.91;1742059;81;20137;-60
2022/02/26 03:00:37;;;;;;;7.92;4.33;;;;;;;1.42;100.00;99979.17;1744541;82;20992;-59
2022/02/26 03:03:07;;;;;;;;;;;;;;;1.42;100.00;99981.86;1747002;82;21404;-60
2022/02/26 03:05:34;;;;;;;7.70;4.60;;;;;;;1.38;100.00;99981.98;1717007;82;20111;-60
2022/02/26 03:08:00;;;;;;;7.87;4.45;;;;;;;1.26;100.00;99984.97;1728972;82;21061;-59
2022/02/26 03:10:28;;;;;;;7.37;4.50;;;;;;;1.28;100.00;99993.11;1714611;84;21051;-60
2022/02/26 03:12:55;;;;;;;7.72;4.75;;;;;;;1.26;100.00;99987.13;1714693;84;21075;-60
2022/02/26 03:15:22;;;;;;;7.00;4.47;;;;;;;1.25;100.00;99993.52;1714783;82;21094;-60
2022/02/26 03:17:50;;;;;;;6.40;4.40;;;;;;;1.18;100.00;99998.05;1737217;82;21079;-58
2022/02/26 03:20:17;;;;;;;8.18;5.05;;;;;;;1.14;100.00;100006.19;1715204;82;21079;-58
2022/02/26 03:22:45;;;;;;;7.67;5.20;;;;;;;1.13;100.00;100004.56;1714704;84;21114;-57
2022/02/26 03:25:11;;;;;;;;;;;;;;;1.12;100.00;100009.61;1717493;83;21557;-58
2022/02/26 03:27:38;;;;;;;9.88;4.90;;;;;;;1.11;100.00;100007.11;1740795;82;20135;-58
2022/02/26 03:30:06;;;;;;;8.28;5.05;;;;;;;1.06;100.00;100009.59;1752569;80;21047;-58
2022/02/26 03:32:32;;;;;;;10.08;5.90;;;;;;;1.00;100.00;100012.05;1738208;82;21023;-58
2022/02/26 03:34:59;;;;;;;8.98;5.47;;;;;;;0.93;100.00;100018.42;1754585;81;21043;-58
2022/02/26 03:37:27;;;;;;;8.65;4.97;;;;;;;0.91;100.00;100016.47;1767502;81;21020;-58
2022/02/26 03:39:57;;;;;;;10.23;5.78;;;;;;;0.90;100.00;100017.49;1765113;81;21004;-58
2022/02/26 03:42:23;;;;;;;10.75;6.42;;;;;;;0.88;100.00;100019.56;1767330;81;21044;-60
2022/02/26 03:44:50;;;;;;;10.10;5.80;;;;;;;0.86;100.00;100025.11;1767513;81;21043;-59
2022/02/26 03:47:17;;;;;;;9.83;5.67;;;;;;;0.82;100.00;100021.17;1767420;80;20972;-58
2022/02/26 03:49:47;;;;;;;11.10;6.30;;;;;;;0.79;100.00;100029.63;1765372;81;21024;-59
2022/02/26 03:52:13;;;;;;;10.20;5.75;;;;;;;0.75;100.00;100033.73;1767011;81;20980;-59
2022/02/26 03:54:41;;;;;;;10.93;6.10;;;;;;;0.67;100.00;100036.61;1767572;81;21043;-61
2022/02/26 03:57:07;;;;;;;9.88;5.95;;;;;;;0.65;100.00;100043.17;1767886;81;20960;-59
2022/02/26 03:59:33;;;;;;;11.65;6.50;;;;;;;0.65;100.00;100047.19;1764603;81;21016;-59
2022/02/26 04:02:00;;;;;;;11.60;6.58;;;;;;;0.63;100.00;100049.26;1767826;81;21430;-59
2022/02/26 04:04:26;;;;;;;8.98;5.37;;;;;;;0.62;100.00;100052.95;1762776;81;21122;-59
2022/02/26 04:06:55;;;;;;;10.78;6.30;;;;;;;0.61;100.00;100052.63;1737271;82;21008;-59
2022/02/26 04:09:22;;;;;;;10.10;6.87;;;;;;;0.60;100.00;100060.38;1737386;81;21091;-59
2022/02/26 04:11:49;;;;;;;;;;;;;;;0.58;100.00;100065.09;1768960;81;21052;-58
2022/02/26 04:14:15;;;;;;;13.65;6.30;;;;;;;0.52;100.00;100072.59;1767653;81;20112;-59
2022/02/26 04:16:42;;;;;;;11.53;6.92;;;;;;;0.47;100.00;100079.37;1762863;81;20956;-58
2022/02/26 04:19:08;;;;;;;12.50;7.03;;;;;;;0.47;100.00;100086.06;1753019;81;21054;-59
2022/02/26 04:21:36;;;;;;;11.83;7.45;;;;;;;0.45;100.00;100085.45;1758009;81;21486;-60
2022/02/26 04:24:02;;;;;;;13.13;9.00;;;;;;;0.49;100.00;100102.78;1749680;81;21577;-60
2022/02/26 04:26:29;;;;;;;11.75;8.23;;;;;;;0.53;100.00;100099.20;1752873;81;21023;-59
2022/02/26 04:28:57;;;;;;;12.43;8.18;;;;;;;0.55;100.00;100107.02;1754206;81;21111;-60
2022/02/26 04:31:24;;;;;;;15.23;9.05;;;;;;;0.59;100.00;100113.64;1752546;81;21051;-60
2022/02/26 04:33:50;;;;;;;;;;;;;;;0.63;100.00;100117.07;1755352;81;21043;-61
2022/02/26 04:36:17;;;;;;;12.18;8.45;;;;;;;0.69;100.00;100124.81;1751173;81;20109;-60
2022/02/26 04:38:44;;;;;;;14.73;8.90;;;;;;;0.70;100.00;100134.01;1753541;81;21024;-59
2022/02/26 04:41:10;;;;;;;13.53;8.00;;;;;;;0.73;100.00;100134.95;1750095;81;21028;-58
2022/02/26 04:43:39;;;;;;;14.90;8.58;;;;;;;0.79;100.00;100146.71;1753785;81;21020;-60
2022/02/26 04:46:05;;;;;;;15.48;9.30;;;;;;;0.83;100.00;100147.47;1753956;81;21578;-59
2022/02/26 04:48:32;;;;;;;14.30;9.03;;;;;;;0.85;100.00;100152.09;1751417;81;21605;-59
2022/02/26 04:50:59;;;;;;;;;;;;;;;0.86;100.00;100155.61;1753444;81;21453;-59
2022/02/26 04:53:26;;;;;;;15.18;9.18;;;;;;;0.88;100.00;100161.11;1759132;81;20442;-59
2022/02/26 04:55:52;;;;;;;16.70;9.68;;;;;;;0.86;100.00;100156.45;1767159;81;21478;-59
2022/02/26 04:58:19;;;;;;;14.68;8.93;;;;;;;0.88;100.00;100167.81;1766791;81;21531;-59
2022/02/26 05:00:46;;;;;;;15.35;9.08;;;;;;;0.88;100.00;100169.66;1760663;81;21083;-59
2022/02/26 05:03:12;;;;;;;15.88;8.60;;;;;;;0.87;100.00;100174.19;1746122;81;21126;-59
2022/02/26 05:05:39;;;;;;;16.75;9.15;;;;;;;0.90;100.00;100183.67;1724308;82;21016;-61
2022/02/26 05:08:05;;;;;;;;;;;;;;;0.88;100.00;100181.72;1748233;81;21067;-61
2022/02/26 05:10:33;;;;;;;14.30;8.78;;;;;;;0.84;100.00;100179.95;1754336;81;20465;-59
2022/02/26 05:13:01;;;;;;;13.60;9.00;;;;;;;0.79;100.00;100192.27;1750272;81;21118;-61
2022/02/26 05:15:28;;;;;;;14.98;9.38;;;;;;;0.76;100.00;100185.46;1754404;81;21071;-61
2022/02/26 05:17:54;;;;;;;14.15;9.03;;;;;;;0.76;100.00;100189.48;1754022;81;21103;-61
2022/02/26 05:20:22;;;;;;;12.65;8.30;;;;;;;0.74;100.00;100190.71;1760732;81;21035;-61
2022/02/26 05:22:49;;;;;;;13.43;9.10;;;;;;;0.74;100.00;100193.39;1745771;81;21564;-60
2022/02/26 05:25:15;;;;;;;13.18;9.60;;;;;;;0.76;100.00;100194.01;1753026;81;21102;-61
2022/02/26 05:27:42;;;;;;;14.87;8.83;;;;;;;0.73;100.00;100193.07;1747381;81;21463;-60
2022/02/26 05:30:11;;;;;;;;;;;;;;;0.74;100.00;100193.39;1751393;81;21027;-60
2022/02/26 05:32:39;;;;;;;14.70;8.78;;;;;;;0.75;100.00;100196.36;1756780;81;20417;-60
2022/02/26 05:35:07;;;;;;;16.77;8.93;;;;;;;0.71;100.00;100197.27;1759252;81;21161;-59
2022/02/26 05:37:34;;;;;;;14.80;9.10;;;;;;;0.75;100.00;100205.23;1753433;81;21102;-59
2022/02/26 05:40:01;;;;;;;15.38;9.33;;;;;;;0.79;100.00;100202.99;1748389;81;21481;-60
2022/02/26 05:42:28;;;;;;;13.80;8.68;;;;;;;0.80;100.00;100208.17;1752015;81;21518;-61
2022/02/26 05:44:54;;;;;;;14.38;9.20;;;;;;;0.84;100.00;100213.96;1745180;81;21569;-59
2022/02/26 05:47:21;;;;;;;16.02;9.83;;;;;;;0.87;100.00;100221.60;1765165;81;21012;-59
2022/02/26 05:49:48;;;;;;;16.40;9.18;;;;;;;0.89;100.00;100220.88;1752349;81;21067;-59
2022/02/26 05:52:14;;;;;;;16.70;8.90;;;;;;;0.91;100.00;100228.23;1753972;81;21067;-59
2022/02/26 05:54:41;;;;;;;;;;;;;;;0.94;100.00;100225.15;1769739;81;21059;-59
2022/02/26 05:57:11;;;;;;;13.93;8.23;;;;;;;0.96;100.00;100231.13;1758111;81;20164;-60
2022/02/26 05:59:36;;;;;;;12.95;8.18;;;;;;;0.89;100.00;100235.11;1740795;81;21051;-58
2022/02/26 06:02:03;;;;;;;13.50;7.80;;;;;;;0.94;100.00;100235.36;1751396;81;20995;-59
2022/02/26 06:04:30;;;;;;;13.95;9.13;;;;;;;1.07;100.00;100241.30;1750641;81;21055;-60
2022/02/26 06:06:57;;;;;;;11.15;7.97;;;;;;;1.26;100.00;100245.95;1753733;81;21043;-60
2022/02/26 06:09:24;;;;;;;12.88;7.40;;;;;;;1.44;100.00;100244.06;1746788;81;20976;-61
2022/02/26 06:11:50;;;;;;;12.43;9.65;;;;;;;1.68;100.00;100247.55;1742412;81;20976;-62
2022/02/26 06:14:17;;;;;;;11.55;8.08;;;;;;;1.91;100.00;100261.44;1740714;81;21641;-60
2022/02/26 06:16:44;;;;;;;15.03;8.55;;;;;;;2.02;100.00;100259.22;1754133;81;20953;-60
2022/02/26 06:19:12;;;;;;;14.65;9.43;;;;;;;2.22;100.00;100264.09;1763663;81;21011;-60
2022/02/26 06:21:38;;;;;;;;;;;;;;;2.40;100.00;100258.95;1752895;81;20936;-61
2022/02/26 06:24:05;;;;;;;13.22;8.10;;;;;;;2.54;100.00;100271.86;1748730;81;20508;-60
2022/02/26 06:26:32;;;;;;;12.18;8.00;;;;;;;2.60;100.00;100270.52;1719990;81;21023;-60
2022/02/26 06:28:59;;;;;;;11.53;7.85;;;;;;;2.77;100.00;100270.40;1750686;81;21075;-60
2022/02/26 06:31:25;;;;;;;;;;;;;;;2.95;100.00;100276.48;1732615;81;21079;-61
2022/02/26 06:33:52;;;;;;;13.37;8.40;;;;;;;3.16;100.00;100271.36;1728139;82;20146;-60
2022/02/26 06:36:18;;;;;;;12.65;8.90;;;;;;;3.25;100.00;100276.33;1714046;83;21055;-59
2022/02/26 06:38:45;;;;;;;14.93;8.45;;;;;;;3.31;100.00;100284.06;1714501;82;21052;-60
2022/02/26 06:41:12;;;;;;;12.95;8.25;;;;;;;3.28;100.00;100273.21;1713729;83;21887;-60
2022/02/26 06:43:39;;;;;;;12.93;7.65;;;;;;;3.54;100.00;100293.01;1713702;83;21585;-60
2022/02/26 06:46:08;;;;;;;13.32;8.38;;;;;;;3.56;100.00;100294.95;1690722;82;21699;-62
2022/02/26 06:48:35;;;;;;;12.23;8.28;;;;;;;3.71;100.00;100292.83;1727578;82;21645;-61
2022/02/26 06:51:01;;;;;;;;;;;;;;;3.77;100.00;100298.19;1707327;82;21502;-62
2022/02/26 06:53:28;;;;;;;10.65;7.42;;;;;;;3.93;100.00;100296.33;1725123;82;20097;-63
2022/02/26 06:55:56;;;;;;;11.18;7.80;;;;;;;4.11;100.00;100299.66;1731616;82;21407;-61
2022/02/26 06:58:22;;;;;;;;;;;;;;;4.32;100.00;100297.97;1679268;82;21553;-62
2022/02/26 07:00:49;;;;;;;13.00;8.20;;;;;;;4.35;100.00;100303.47;1725481;82;20141;-59
2022/02/26 07:03:15;;;;;;;11.75;7.70;;;;;;;4.31;100.00;100309.81;1720087;81;21558;-60
2022/02/26 07:05:42;;;;;;;9.58;6.78;;;;;;;4.43;100.00;100309.92;1725674;82;21498;-62
2022/02/26 07:08:09;;;;;;;10.45;7.20;;;;;;;4.57;100.00;100314.73;1727909;82;21066;-61
2022/02/26 07:10:36;;;;;;;10.82;7.70;;;;;;;4.76;100.00;100311.03;1728389;82;20995;-62
2022/02/26 07:13:02;;;;;;;10.70;6.90;;;;;;;5.04;100.00;100314.11;1726914;82;21019;-62
2022/02/26 07:15:29;;;;;;;10.75;6.60;;;;;;;5.38;100.00;100314.09;1726834;82;21006;-63
2022/02/26 07:17:55;;;;;;;11.05;7.22;;;;;;;5.42;100.00;100316.10;1727785;82;21503;-62
2022/02/26 07:20:22;;;;;;;;;;;;;;;5.61;100.00;100322.86;1730679;82;20952;-62
2022/02/26 07:22:48;;;;;;;10.20;6.42;;;;;;;5.91;100.00;100325.14;1723879;81;20465;-61
2022/02/26 07:25:15;;;;;;;9.68;6.35;;;;;;;5.98;100.00;100330.77;1728360;82;21641;-63
2022/02/26 07:27:42;;;;;;;12.23;7.58;;;;;;;6.09;100.00;100331.05;1723671;82;21082;-63
2022/02/26 07:30:09;;;;;;;9.90;6.30;;;;;;;6.29;100.00;100336.48;1735726;80;21008;-62
2022/02/26 07:32:38;;;;;;;9.35;6.12;;;;;;;6.52;100.00;100335.72;1721375;82;21114;-62
2022/02/26 07:35:05;;;;;;;8.03;5.70;;;;;;;6.55;100.00;100333.94;1713622;82;20984;-61
2022/02/26 07:37:32;;;;;;;9.85;6.45;;;;;;;6.57;100.00;100341.27;1725757;82;21055;-62
2022/02/26 07:39:58;;;;;;;8.45;5.70;;;;;;;6.71;100.00;100344.08;1714993;82;21523;-62
2022/02/26 07:45:01;;;;;;;9.28;5.55;;;;;;;7.38;100.00;100345.96;1796935;79;22830;-62
2022/02/26 07:47:27;;;;;;;;;;;;;;;7.65;100.00;100346.31;1728660;82;21003;-62
2022/02/26 07:49:53;;;;;;;8.10;5.65;;;;;;;7.96;100.00;100349.43;1736701;82;20142;-61
2022/02/26 07:52:19;;;;;;;9.30;5.60;;;;;;;7.78;100.00;100353.66;1737911;82;21011;-62
2022/02/26 07:54:46;;;;;;;11.05;5.97;;;;;;;7.75;100.00;100337.04;1734623;82;21026;-61
2022/02/26 07:57:13;;;;;;;9.78;5.40;;;;;;;8.04;100.00;100356.37;1737518;81;21004;-63
2022/02/26 07:59:39;;;;;;;8.48;4.97;;;;;;;8.30;100.00;100352.28;1736365;82;21106;-62
2022/02/26 08:02:06;;;;;;;10.48;5.42;;;;;;;8.22;100.00;100360.23;1735378;82;21034;-62
2022/02/26 08:04:34;;;;;;;9.55;5.72;;;;;;;7.99;100.00;100358.96;1730310;82;21039;-61
2022/02/26 08:07:00;;;;;;;8.75;5.58;;;;;;;7.91;100.00;100360.68;1735371;82;20967;-62
2022/02/26 08:09:27;;;;;;;;;;;;;;;7.93;100.00;100362.64;1739370;82;21066;-62
2022/02/26 08:11:53;;;;;;;10.30;5.87;;;;;;;7.86;100.00;100359.23;1736521;82;20124;-61
2022/02/26 08:14:20;;;;;;;7.85;5.25;;;;;;;7.72;100.00;100361.36;1722638;82;21074;-64
2022/02/26 08:16:46;;;;;;;7.75;4.60;;;;;;;7.90;100.00;100361.77;1733227;82;20971;-62
2022/02/26 08:19:18;;;;;;;7.80;4.03;;;;;;;8.24;100.00;100370.33;1749341;82;21019;-62
2022/02/26 08:21:44;;;;;;;8.73;4.83;;;;;;;8.55;100.00;100372.29;1677529;83;20963;-61
2022/02/26 08:24:12;;;;;;;;;;;;;;;8.59;94.54;100368.85;1724113;83;21575;-62
2022/02/26 08:26:39;;;;;;;10.58;5.20;;;;;;;8.51;93.69;100367.88;1729312;82;20102;-61
2022/02/26 08:29:05;;;;;;;;;;;;;;;8.38;91.64;100362.75;1753226;82;21050;-63
2022/02/26 08:31:32;;;;;;;8.55;5.03;;;;;;;8.42;92.53;100362.03;1751170;81;20114;-62
2022/02/26 08:33:58;;;;;;;;;;;;;;;8.52;92.21;100364.64;1752949;81;21056;-61
2022/02/26 08:36:25;;;;;;;10.45;5.00;;;;;;;8.66;91.48;100372.23;1724549;82;20097;-61
2022/02/26 08:38:51;;;;;;;;;;;;;;;8.79;86.49;100371.09;1695695;83;21050;-61
2022/02/26 08:41:18;;;;;;;9.73;5.45;;;;;;;9.05;86.11;100369.13;1721634;83;20133;-61
2022/02/26 08:43:46;;;;;;;8.23;5.28;;;;;;;9.23;82.12;100370.77;1722171;82;21535;-61
2022/02/26 08:46:12;;;;;;;8.05;4.92;;;;;;;9.58;76.34;100359.61;1722694;83;21569;-62
2022/02/26 08:48:39;;;;;;;9.45;5.35;;;;;;;9.59;71.34;100360.73;1729573;82;21628;-61
2022/02/26 08:51:05;;;;;;;;;;;;;;;9.48;67.01;100365.73;1738595;82;21486;-62
2022/02/26 08:53:32;;;;;;;8.93;5.87;;;;;;;9.47;68.56;100366.79;1739368;82;20436;-61
2022/02/26 08:55:59;;;;;;;9.18;5.42;;;;;;;9.44;69.29;100369.48;1737431;82;20940;-61
2022/02/26 08:58:25;;;;;;;9.00;5.70;;;;;;;9.50;66.16;100363.56;1732277;82;21058;-60
2022/02/26 09:00:52;;;;;;;7.87;4.08;;;;;;;9.50;66.45;100372.55;1737821;82;21409;-62
2022/02/26 09:03:19;;;;;;;7.95;4.75;;;;;;;9.65;61.29;100376.03;1741976;82;21536;-62
2022/02/26 09:05:45;;;;;;;8.18;4.65;;;;;;;9.63;58.77;100380.08;1738035;82;20959;-61
2022/02/26 09:08:12;;;;;;;6.90;3.67;;;;;;;9.44;57.93;100365.94;1736328;82;21010;-60
2022/02/26 09:10:38;;;;;;;;;;;;;;;9.00;58.93;100375.28;1738181;82;20973;-60
2022/02/26 09:13:06;;;;;;;3.17;1.67;;;;;;;8.98;58.21;100364.38;1739678;82;20089;-59
2022/02/26 09:15:33;;;;;;;5.28;2.00;;;;;;;9.20;58.70;100373.45;1738114;82;21384;-60
2022/02/26 09:17:59;;;;;;;5.22;1.95;;;;;;;9.68;56.32;100372.80;1737047;82;21046;-60
2022/02/26 09:20:26;;;;;;;4.47;1.75;;;;;;;10.13;54.06;100359.54;1736588;82;21022;-60
2022/02/26 09:22:52;;;;;;;;;;;;;;;10.32;52.38;100370.39;1737304;82;21042;-62
2022/02/26 09:25:19;;;;;;;3.42;1.02;;;;;;;10.21;48.59;100367.27;1737882;82;20122;-61
2022/02/26 09:27:47;;;;;;;4.12;1.60;;;;;;;10.02;49.05;100376.81;1736949;82;21852;-59
2022/02/26 09:30:14;;;;;;;8.70;1.65;;;;;;;10.16;47.92;100368.58;1735264;82;20971;-61
2022/02/26 09:32:41;;;;;;;3.58;1.30;;;;;;;10.25;47.22;100371.95;1734506;82;21066;-61
2022/02/26 09:35:09;;;;;;;4.67;1.70;;;;;;;10.56;46.30;100373.67;1721957;82;21471;-61
2022/02/26 09:37:36;;;;;;;4.10;1.70;;;;;;;10.67;45.10;100372.67;1726075;82;21091;-60
2022/02/26 09:40:04;;;;;;;4.45;1.10;;;;;;;10.65;43.66;100374.84;1730440;82;21586;-61
2022/02/26 09:42:31;;;;;;;3.22;1.30;;;;;;;10.52;43.02;100372.54;1709593;82;21517;-61
2022/02/26 09:44:58;;;;;;;3.67;1.42;;;;;;;10.39;41.74;100374.56;1741561;81;20995;-60
2022/02/26 09:47:25;;;;;;;4.78;2.62;;;;;;;10.16;41.82;100384.38;1746554;82;21427;-61
2022/02/26 09:49:52;;;;;;;4.17;2.55;;;;;;;10.01;41.41;100377.34;1746304;82;21522;-60
2022/02/26 09:52:18;;;;;;;7.22;3.77;;;;;;;10.00;41.69;100384.67;1735193;82;20975;-60
2022/02/26 09:54:48;;;;;;;6.50;3.87;;;;;;;10.10;42.28;100390.77;1745241;82;21055;-62
2022/02/26 09:57:15;;;;;;;11.18;5.72;;;;;;;10.30;41.86;100376.64;1738169;82;20955;-62
2022/02/26 09:59:44;;;;;;;9.93;6.72;;;;;;;10.34;41.35;100386.77;1726028;82;21011;-60
2022/02/26 10:02:11;;;;;;;13.70;6.72;;;;;;;10.41;41.27;100392.02;1738061;82;20971;-60
2022/02/26 10:04:38;;;;;;;;;;;;;;;10.57;40.86;100401.16;1728261;82;21023;-61
2022/02/26 10:07:10;;;;;;;;;;;;;;;10.52;40.65;100394.31;1724407;83;20113;-61
2022/02/26 10:09:40;;;;;;;8.70;5.08;;;;;;;10.11;40.59;100407.92;1721701;83;20112;-64
2022/02/26 10:12:22;;;;;;;10.05;6.12;;;;;;;9.65;41.37;100407.29;1738035;82;21684;-65
2022/02/26 10:14:53;;;;;;;7.95;4.12;;;;;;;9.44;41.54;100405.34;1737649;82;21534;-63
2022/02/26 10:17:29;;;;;;;8.00;4.97;;;;;;;9.36;42.04;100409.81;1737312;82;21632;-63
2022/02/26 10:20:17;;;;;;;13.93;7.65;;;;;;;9.25;42.45;100414.80;1731528;82;20995;-62
2022/02/26 10:22:50;;;;;;;7.47;4.10;;;;;;;9.11;42.78;100419.73;1733707;82;21617;-61
2022/02/26 10:25:20;;;;;;;7.90;4.83;;;;;;;8.94;43.13;100428.39;1732754;82;21067;-62
2022/02/26 10:27:52;;;;;;;9.60;5.35;;;;;;;8.62;43.93;100424.00;1731351;82;21528;-62
2022/02/26 10:30:40;;;;;;;10.60;7.20;;;;;;;8.36;44.52;100418.59;1733642;82;21487;-62
2022/02/26 10:33:25;;;;;;;17.15;10.00;;;;;;;8.18;45.23;100426.89;1730783;82;21102;-62
2022/02/26 10:35:59;;;;;;;19.85;11.97;;;;;;;8.01;45.97;100432.73;1728836;82;20967;-62
2022/02/26 10:38:30;;;;;;;18.42;11.80;;;;;;;7.86;46.46;100429.72;1733098;82;21015;-61
2022/02/26 10:41:08;;;;;;;8.53;4.62;;;;;;;7.85;45.78;100433.48;1736407;82;20924;-62
2022/02/26 10:43:48;;;;;;;4.58;2.20;;;;;;;7.83;45.84;100435.05;1733951;82;21129;-63
2022/02/26 10:46:28;;;;;;;6.37;3.33;;;;;;;7.78;44.92;100430.89;1725360;82;20975;-61
2022/02/26 10:49:09;;;;;;;9.30;5.58;;;;;;;7.71;45.46;100439.67;1728492;82;20992;-61
2022/02/26 10:51:38;;;;;;;11.30;6.58;;;;;;;7.77;45.37;100436.02;1721185;82;20964;-60
2022/02/26 10:54:10;;;;;;;9.90;5.67;;;;;;;7.83;44.77;100432.34;1723950;82;21043;-62
2022/02/26 10:56:41;;;;;;;9.78;5.15;;;;;;;7.83;44.30;100426.92;1707360;83;20976;-63
2022/02/26 10:59:10;;;;;;;6.87;2.72;;;;;;;7.84;45.12;100428.58;1714212;82;20988;-63
2022/02/26 11:01:37;;;;;;;3.85;1.70;;;;;;;7.96;45.57;100429.41;1724463;82;21423;-62
2022/02/26 11:04:04;;;;;;;5.22;2.15;;;;;;;7.96;45.79;100429.94;1717801;82;21644;-62
2022/02/26 11:06:32;;;;;;;4.72;2.08;;;;;;;7.90;45.07;100429.54;1705250;82;20976;-63
2022/02/26 11:08:59;;;;;;;5.97;3.33;;;;;;;7.80;45.06;100435.53;1719132;82;21074;-61
2022/02/26 11:11:25;;;;;;;7.85;3.72;;;;;;;7.68;45.11;100439.32;1727640;82;20925;-61
2022/02/26 11:13:54;;;;;;;6.95;3.85;;;;;;;7.51;45.44;100443.23;1721412;82;21030;-62
2022/02/26 11:16:22;;;;;;;5.92;2.72;;;;;;;7.49;46.10;100442.66;1715800;82;21021;-62
2022/02/26 11:18:53;;;;;;;8.50;3.70;;;;;;;7.66;47.63;100440.91;1716653;82;21070;-61
2022/02/26 11:21:21;;;;;;;9.80;5.10;;;;;;;7.90;46.60;100441.73;1726745;82;20964;-61
2022/02/26 11:23:49;;;;;;;6.45;3.62;;;;;;;7.95;45.83;100439.95;1716969;82;21296;-60
2022/02/26 11:26:18;;;;;;;6.08;2.67;;;;;;;7.90;46.45;100448.52;1721382;82;21000;-61
2022/02/26 11:28:49;;;;;;;4.45;2.10;;;;;;;7.82;46.18;100459.70;1723489;82;21044;-61
2022/02/26 11:31:26;;;;;;;6.72;1.95;;;;;;;7.62;46.48;100457.86;1733522;82;20948;-61
2022/02/26 11:33:53;;;;;;;;;;;;;;;7.49;46.99;100457.04;1735356;82;21051;-60
2022/02/26 11:36:20;;;;;;;3.12;1.42;;;;;;;7.44;47.83;100450.66;1731436;82;20209;-61
2022/02/26 11:38:46;;;;;;;4.25;1.77;;;;;;;7.59;47.38;100459.16;1736892;82;21055;-62